Time;durP1;ratioP1;P1;durP2;ratioP2;P2;SDS_P1;SDS_P2;PMS_P1;PMS_P2;Temp;Humidity;BMP_temperature;BMP_pressure;BME280_temperature;BME280_humidity;BME280_pressure;Samples;Min_cycle;Max_cycle;Signal;HPM_P1;HPM_P2
2023/06/05 00:00:09;;;;;;;;;;;;;;;13.08;76.98;102249.03;5020955;28;19920;-57
2023/06/05 00:02:34;;;;;;;;;;;;;;;13.02;76.21;102240.16;5019460;28;19922;-57
2023/06/05 00:05:01;;;;;;;;;;;;;;;13.00;75.06;102249.56;5020620;28;19987;-56
2023/06/05 00:07:26;;;;;;;;;;;;;;;12.95;74.84;102251.97;5014904;28;19925;-57
2023/06/05 00:09:51;;;;;;;;;;;;;;;12.93;76.29;102251.03;5014051;28;19920;-56
2023/06/05 00:12:17;;;;;;;;;;;;;;;12.88;75.99;102252.53;5022422;28;20447;-57
2023/06/05 00:14:43;;;;;;;;;;;;;;;12.85;78.04;102248.09;5025419;28;19926;-57
2023/06/05 00:17:09;;;;;;;;;;;;;;;12.78;78.21;102246.09;5013205;28;19924;-57
2023/06/05 00:19:34;;;;;;;;;;;;;;;12.77;77.54;102243.47;5023058;28;19960;-57
2023/06/05 00:21:59;;;;;;;;;;;;;;;12.70;77.10;102252.66;5020477;28;19920;-56
2023/06/05 00:24:25;;;;;;;;;;;;;;;12.67;78.38;102254.22;5023083;28;19921;-57
2023/06/05 00:26:50;;;;;;;;;;;;;;;12.61;78.22;102242.81;5015212;28;20003;-56
2023/06/05 00:29:15;;;;;;;;;;;;;;;12.57;79.07;102252.97;5019511;28;20024;-57
2023/06/05 00:31:42;;;;;;;;;;;;;;;12.55;77.01;102250.31;5022767;28;20047;-57
2023/06/05 00:34:07;;;;;;;;;;;;;;;12.51;76.72;102257.88;5018396;28;19932;-57
2023/06/05 00:36:32;;;;;;;;;;;;;;;12.50;77.81;102254.41;5018012;28;19932;-57
2023/06/05 00:38:57;;;;;;;;;;;;;;;12.43;78.55;102251.47;5019388;28;19917;-58
2023/06/05 00:41:23;;;;;;;;;;;;;;;12.39;79.53;102254.78;5014787;28;19927;-58
2023/06/05 00:43:48;;;;;;;;;;;;;;;12.34;79.82;102246.84;5021948;28;19923;-57
2023/06/05 00:46:14;;;;;;;;;;;;;;;12.31;80.74;102250.13;5020740;28;19929;-58
2023/06/05 00:48:40;;;;;;;;;;;;;;;12.25;79.75;102249.88;5024374;28;19917;-57
2023/06/05 00:51:06;;;;;;;;;;;;;;;12.25;77.76;102246.41;5021581;28;20450;-57
2023/06/05 00:53:34;;;;;;;;;;;;;;;12.17;79.83;102246.09;5022350;28;19940;-57
2023/06/05 00:56:01;;;;;;;;;;;;;;;12.14;80.22;102243.41;5016821;28;19996;-56
2023/06/05 00:58:28;;;;;;;;;;;;;;;12.10;77.78;102241.50;5020336;28;19919;-57
2023/06/05 01:00:53;;;;;;;;;;;;;;;12.07;83.35;102246.50;5019476;28;20611;-57
2023/06/05 01:03:20;;;;;;;;;;;;;;;12.04;81.93;102244.69;5017493;28;19925;-56
2023/06/05 01:05:47;;;;;;;;;;;;;;;12.00;79.86;102241.91;5017703;28;20312;-56
2023/06/05 01:08:14;;;;;;;;;;;;;;;11.93;82.65;102240.75;5016061;28;19933;-57
2023/06/05 01:10:39;;;;;;;;;;;;;;;11.92;80.07;102245.84;5024898;28;19917;-50
2023/06/05 01:13:31;;;;;;;;;;;;;;;11.88;83.89;102244.81;5019033;28;19918;-50
2023/06/05 01:15:57;;;;;;;;;;;;;;;11.81;82.92;102240.19;5020213;28;20473;-49
2023/06/05 01:18:23;;;;;;;;;;;;;;;11.77;82.35;102236.59;5016614;28;19929;-46
2023/06/05 01:20:48;;;;;;;;;;;;;;;11.73;83.52;102236.38;5030158;28;19921;-50
2023/06/05 01:23:13;;;;;;;;;;;;;;;11.68;82.93;102228.44;5029410;28;19944;-46
2023/06/05 01:25:40;;;;;;;;;;;;;;;11.65;83.08;102235.13;5029863;28;19927;-49
2023/06/05 01:28:22;;;;;;;;;;;;;;;11.62;84.71;102235.00;5025481;28;19972;-49
2023/06/05 01:31:15;;;;;;;;;;;;;;;11.58;83.29;102233.97;5022220;28;19923;-46
2023/06/05 01:33:49;;;;;;;;;;;;;;;11.55;85.50;102239.00;5022057;28;20020;-46
2023/06/05 01:36:15;;;;;;;;;;;;;;;11.52;81.64;102236.25;5015087;28;19914;-48
2023/06/05 01:38:41;;;;;;;;;;;;;;;11.47;84.25;102245.50;5013982;28;19914;-47
2023/06/05 01:41:07;;;;;;;;;;;;;;;11.43;85.25;102241.00;5012323;28;19964;-49
2023/06/05 01:43:33;;;;;;;;;;;;;;;11.39;86.36;102231.34;5013925;28;19926;-52
2023/06/05 01:45:59;;;;;;;;;;;;;;;11.34;85.66;102233.72;5020147;28;19914;-50
2023/06/05 01:48:27;;;;;;;;;;;;;;;11.35;84.32;102238.06;5023448;28;20269;-46
2023/06/05 01:50:55;;;;;;;;;;;;;;;11.31;85.65;102233.59;5020090;28;20008;-47
2023/06/05 01:53:20;;;;;;;;;;;;;;;11.30;84.77;102225.78;5019462;28;20384;-44
2023/06/05 01:55:46;;;;;;;;;;;;;;;11.26;88.40;102220.47;5017458;28;19953;-47
2023/06/05 01:58:12;;;;;;;;;;;;;;;11.22;86.29;102223.75;5016346;28;19970;-45
2023/06/05 02:00:37;;;;;;;;;;;;;;;11.19;88.65;102221.00;5016834;28;19921;-47
2023/06/05 02:03:03;;;;;;;;;;;;;;;11.15;83.26;102219.09;5012427;28;19929;-46
2023/06/05 02:05:29;;;;;;;;;;;;;;;11.11;86.41;102214.63;5016201;28;19924;-46
2023/06/05 02:07:58;;;;;;;;;;;;;;;11.08;85.74;102211.91;5016401;28;19929;-46
2023/06/05 02:10:23;;;;;;;;;;;;;;;11.05;86.16;102211.75;5016201;28;20363;-47
2023/06/05 02:12:49;;;;;;;;;;;;;;;11.01;86.61;102210.72;5014470;28;20463;-48
2023/06/05 02:15:14;;;;;;;;;;;;;;;10.98;84.45;102207.09;5019053;28;20029;-46
2023/06/05 02:17:44;;;;;;;;;;;;;;;10.97;88.67;102211.38;5013748;28;19924;-47
2023/06/05 02:20:11;;;;;;;;;;;;;;;10.93;86.62;102203.47;5012931;28;20415;-46
2023/06/05 02:22:37;;;;;;;;;;;;;;;10.91;84.57;102216.22;5012516;28;20352;-48
2023/06/05 02:25:02;;;;;;;;;;;;;;;10.90;85.51;102216.16;5023664;28;20012;-46
2023/06/05 02:27:27;;;;;;;;;;;;;;;10.86;86.27;102211.66;5016019;28;19917;-46
2023/06/05 02:29:53;;;;;;;;;;;;;;;10.82;87.66;102204.63;4999818;28;20372;-48
2023/06/05 02:32:18;;;;;;;;;;;;;;;10.78;86.39;102206.16;5012423;28;19964;-47
2023/06/05 02:34:47;;;;;;;;;;;;;;;10.77;87.29;102204.41;5016563;28;19917;-47
2023/06/05 02:37:12;;;;;;;;;;;;;;;10.73;89.46;102208.50;5013770;28;19918;-49
2023/06/05 02:39:37;;;;;;;;;;;;;;;10.75;88.00;102208.59;5013353;28;20349;-47
2023/06/05 02:42:03;;;;;;;;;;;;;;;10.71;88.72;102210.13;5014196;28;20008;-50
2023/06/05 02:44:29;;;;;;;;;;;;;;;10.69;88.96;102203.16;5015833;28;19925;-48
2023/06/05 02:46:54;;;;;;;;;;;;;;;10.66;91.14;102203.88;5015454;28;19918;-50
2023/06/05 02:49:19;;;;;;;;;;;;;;;10.62;90.71;102201.09;5018429;28;19922;-49
2023/06/05 02:51:45;;;;;;;;;;;;;;;10.60;92.06;102200.13;5018617;28;19918;-50
2023/06/05 02:54:10;;;;;;;;;;;;;;;10.58;88.99;102199.16;5019503;28;20561;-46
2023/06/05 02:56:35;;;;;;;;;;;;;;;10.54;87.62;102198.13;5015079;28;19924;-46
2023/06/05 02:59:03;;;;;;;;;;;;;;;10.52;90.49;102188.59;5014305;28;19951;-46
2023/06/05 03:01:34;;;;;;;;;;;;;;;10.49;90.47;102197.00;5015003;28;20502;-50
2023/06/05 03:03:59;;;;;;;;;;;;;;;10.43;91.21;102195.03;5018699;28;19914;-48
2023/06/05 03:06:27;;;;;;;;;;;;;;;10.43;90.60;102204.41;5018799;28;19932;-48
2023/06/05 03:08:55;;;;;;;;;;;;;;;10.39;92.15;102205.97;5014958;28;19929;-46
2023/06/05 03:11:21;;;;;;;;;;;;;;;10.38;91.76;102206.78;5011751;28;19965;-45
2023/06/05 03:13:46;;;;;;;;;;;;;;;10.36;92.54;102204.94;5014968;28;20012;-49
2023/06/05 03:16:12;;;;;;;;;;;;;;;10.34;90.84;102198.84;5017669;28;19960;-48
2023/06/05 03:18:38;;;;;;;;;;;;;;;10.32;94.91;102201.34;5013533;28;20387;-48
2023/06/05 03:21:03;;;;;;;;;;;;;;;10.31;91.74;102203.81;5013981;28;20040;-48
2023/06/05 03:23:29;;;;;;;;;;;;;;;10.30;93.86;102205.50;5017527;28;19921;-46
2023/06/05 03:25:55;;;;;;;;;;;;;;;10.27;94.61;102200.22;5021054;28;19913;-50
2023/06/05 03:28:21;;;;;;;;;;;;;;;10.24;92.54;102197.47;5020388;28;19917;-49
2023/06/05 03:30:46;;;;;;;;;;;;;;;10.23;95.33;102193.16;5014549;28;19924;-49
2023/06/05 03:33:13;;;;;;;;;;;;;;;10.18;93.11;102185.16;5021821;28;19921;-46
2023/06/05 03:35:40;;;;;;;;;;;;;;;10.18;92.57;102182.59;5014850;28;20653;-46
2023/06/05 03:38:05;;;;;;;;;;;;;;;10.15;94.17;102185.03;5016790;28;19917;-49
2023/06/05 03:40:31;;;;;;;;;;;;;;;10.13;94.12;102178.94;5014589;28;19935;-48
2023/06/05 03:42:56;;;;;;;;;;;;;;;10.13;94.54;102186.63;5012915;28;20399;-46
2023/06/05 03:45:22;;;;;;;;;;;;;;;10.11;95.08;102180.53;5013562;28;20402;-46
2023/06/05 03:47:48;;;;;;;;;;;;;;;10.09;93.66;102187.28;5011137;28;20407;-48
2023/06/05 03:50:14;;;;;;;;;;;;;;;10.10;93.28;102186.47;5013165;28;19918;-45
2023/06/05 03:52:39;;;;;;;;;;;;;;;10.12;94.95;102182.28;5010593;28;20466;-47
2023/06/05 03:55:07;;;;;;;;;;;;;;;10.10;94.92;102181.31;5018481;28;19918;-45
2023/06/05 03:57:33;;;;;;;;;;;;;;;10.08;96.10;102185.53;5018462;28;19928;-46
2023/06/05 03:59:58;;;;;;;;;;;;;;;10.09;94.48;102187.28;5017890;28;20280;-49
2023/06/05 04:02:23;;;;;;;;;;;;;;;10.09;93.29;102182.13;5013115;28;19924;-45
2023/06/05 04:04:50;;;;;;;;;;;;;;;10.07;95.38;102187.97;5010487;28;19918;-48
2023/06/05 04:07:15;;;;;;;;;;;;;;;10.08;95.97;102182.94;5015001;28;19921;-46
2023/06/05 04:09:41;;;;;;;;;;;;;;;10.12;94.99;102186.53;5013661;28;19934;-49
2023/06/05 04:12:06;;;;;;;;;;;;;;;10.13;91.24;102181.50;5017137;28;19921;-45
2023/06/05 04:14:33;;;;;;;;;;;;;;;10.15;95.66;102179.88;5011562;28;20219;-50
2023/06/05 04:16:59;;;;;;;;;;;;;;;10.17;93.84;102180.81;5015740;28;19918;-48
2023/06/05 04:19:25;;;;;;;;;;;;;;;10.18;95.21;102187.72;5015060;28;19936;-48
2023/06/05 04:21:51;;;;;;;;;;;;;;;10.23;95.14;102181.94;5013836;28;19925;-48
2023/06/05 04:24:16;;;;;;;;;;;;;;;10.42;92.18;102185.53;5024561;28;19983;-49
2023/06/05 04:26:41;;;;;;;;;;;;;;;10.82;92.66;102186.63;5026706;28;19961;-46
2023/06/05 04:29:13;;;;;;;;;;;;;;;11.22;92.35;102190.28;5019585;28;19930;-48
2023/06/05 04:31:40;;;;;;;;;;;;;;;11.62;90.13;102189.50;5023470;28;19913;-57
2023/06/05 04:34:07;;;;;;;;;;;;;;;11.99;88.88;102192.03;5016617;28;19953;-58
2023/06/05 04:36:34;;;;;;;;;;;;;;;12.23;87.88;102196.47;5020117;28;19964;-57
2023/06/05 04:39:00;;;;;;;;;;;;;;;12.48;86.70;102199.28;5016870;28;20383;-57
2023/06/05 04:41:28;;;;;;;;;;;;;;;12.74;86.22;102197.78;5018175;28;20327;-57
2023/06/05 04:43:54;;;;;;;;;;;;;;;13.04;84.61;102197.19;5013703;28;19917;-57
2023/06/05 04:46:20;;;;;;;;;;;;;;;13.22;83.53;102192.78;5017254;28;20016;-57
2023/06/05 04:48:45;;;;;;;;;;;;;;;13.38;82.93;102197.72;5020747;28;20016;-57
2023/06/05 04:51:11;;;;;;;;;;;;;;;13.55;82.33;102193.19;5019468;28;19918;-57
2023/06/05 04:53:37;;;;;;;;;;;;;;;13.79;81.90;102198.38;5022099;28;20534;-56
2023/06/05 04:56:02;;;;;;;;;;;;;;;13.95;80.56;102194.63;5020408;28;19975;-57
2023/06/05 04:58:27;;;;;;;;;;;;;;;14.10;80.37;102197.75;5021046;28;20384;-57
2023/06/05 05:00:53;;;;;;;;;;;;;;;14.36;78.79;102196.06;5020282;28;20241;-56
2023/06/05 05:03:19;;;;;;;;;;;;;;;14.45;79.12;102201.56;5020957;28;19913;-58
2023/06/05 05:05:44;;;;;;;;;;;;;;;14.35;78.54;102199.47;5021163;28;19926;-57
2023/06/05 05:08:09;;;;;;;;;;;;;;;14.54;78.46;102208.75;5018730;28;19957;-57
2023/06/05 05:10:34;;;;;;;;;;;;;;;14.54;77.38;102211.34;5016005;28;19949;-57
2023/06/05 05:13:03;;;;;;;;;;;;;;;14.41;77.10;102203.97;5019420;28;19925;-57
2023/06/05 05:15:31;;;;;;;;;;;;;;;14.38;78.25;102199.59;5016612;28;19958;-57
2023/06/05 05:17:57;;;;;;;;;;;;;;;14.53;77.16;102206.13;5017879;28;19923;-57
2023/06/05 05:20:22;;;;;;;;;;;;;;;14.53;76.77;102206.13;5015055;28;20000;-57
2023/06/05 05:22:47;;;;;;;;;;;;;;;14.31;76.61;102200.19;5015597;28;19975;-57
2023/06/05 05:25:13;;;;;;;;;;;;;;;14.15;77.88;102197.94;5024636;28;20411;-57
2023/06/05 05:27:38;;;;;;;;;;;;;;;14.27;77.57;102195.75;5015794;28;19918;-57
2023/06/05 05:30:04;;;;;;;;;;;;;;;14.44;77.15;102199.81;5019900;28;19913;-57
2023/06/05 05:32:29;;;;;;;;;;;;;;;14.68;75.23;102194.59;5017693;28;19967;-57
2023/06/05 05:34:55;;;;;;;;;;;;;;;14.79;75.99;102196.63;5019960;28;20016;-57
2023/06/05 05:37:20;;;;;;;;;;;;;;;15.00;74.99;102192.13;5023460;28;20008;-58
2023/06/05 05:39:45;;;;;;;;;;;;;;;15.28;74.69;102192.13;5020606;28;20392;-57
2023/06/05 05:42:11;;;;;;;;;;;;;;;15.48;74.55;102195.31;5024004;28;20683;-58
2023/06/05 05:44:36;;;;;;;;;;;;;;;15.56;72.14;102198.13;5018467;28;19920;-56
2023/06/05 05:47:01;;;;;;;;;;;;;;;15.63;70.88;102201.78;5022554;28;19956;-57
2023/06/05 05:49:26;;;;;;;;;;;;;;;15.64;72.78;102201.84;5017295;28;20020;-57
2023/06/05 05:51:52;;;;;;;;;;;;;;;15.52;72.85;102202.31;5018734;28;19984;-57
2023/06/05 05:54:17;;;;;;;;;;;;;;;15.60;71.32;102202.56;5012364;28;19987;-56
2023/06/05 05:56:43;;;;;;;;;;;;;;;15.74;72.31;102206.47;5012728;28;19913;-58
2023/06/05 05:59:09;;;;;;;;;;;;;;;15.75;71.88;102205.63;5016450;28;19917;-58
2023/06/05 06:01:34;;;;;;;;;;;;;;;15.88;70.04;102212.03;5021890;28;20441;-57
2023/06/05 06:03:59;;;;;;;;;;;;;;;16.02;69.57;102209.81;5021474;28;19944;-57
2023/06/05 06:06:25;;;;;;;;;;;;;;;16.00;71.09;102212.34;5020333;28;19953;-57
2023/06/05 06:08:50;;;;;;;;;;;;;;;16.14;69.25;102209.25;5015814;28;19969;-57
2023/06/05 06:11:16;;;;;;;;;;;;;;;16.22;68.37;102215.53;5013407;28;19917;-56
2023/06/05 06:13:43;;;;;;;;;;;;;;;16.34;68.74;102223.66;5014780;28;19928;-57
2023/06/05 06:16:08;;;;;;;;;;;;;;;16.42;67.76;102221.25;5023359;28;19960;-57
2023/06/05 06:18:33;;;;;;;;;;;;;;;16.44;67.82;102222.16;5014731;28;19964;-58
2023/06/05 06:20:58;;;;;;;;;;;;;;;16.52;68.26;102223.25;5015006;28;19925;-58
2023/06/05 06:23:24;;;;;;;;;;;;;;;16.79;67.71;102223.06;5018937;28;19917;-56
2023/06/05 06:25:51;;;;;;;;;;;;;;;16.95;65.08;102216.53;5021091;28;19921;-57
2023/06/05 06:28:17;;;;;;;;;;;;;;;16.94;65.50;102220.84;5013025;28;19975;-57
2023/06/05 06:30:42;;;;;;;;;;;;;;;16.99;65.40;102219.25;5010620;28;20011;-57
2023/06/05 06:33:08;;;;;;;;;;;;;;;16.81;65.68;102219.69;5020172;28;19972;-58
2023/06/05 06:35:33;;;;;;;;;;;;;;;16.85;65.10;102218.88;5026208;28;20315;-57
2023/06/05 06:37:58;;;;;;;;;;;;;;;16.83;65.29;102220.59;5025709;28;19975;-57
2023/06/05 06:40:24;;;;;;;;;;;;;;;17.04;64.50;102212.41;5018244;28;20356;-56
2023/06/05 06:42:50;;;;;;;;;;;;;;;16.98;64.19;102220.06;5012986;28;19996;-57
2023/06/05 06:45:16;;;;;;;;;;;;;;;17.05;64.91;102214.19;5016817;28;19924;-56
2023/06/05 06:47:42;;;;;;;;;;;;;;;16.98;62.95;102217.47;5014051;28;19918;-57
2023/06/05 06:50:07;;;;;;;;;;;;;;;16.85;63.88;102223.22;5017882;28;19917;-57
2023/06/05 06:52:32;;;;;;;;;;;;;;;16.71;63.39;102225.47;5014105;28;19925;-58
2023/06/05 06:54:58;;;;;;;;;;;;;;;17.06;63.18;102228.06;5017332;28;19917;-56
2023/06/05 06:57:23;;;;;;;;;;;;;;;16.88;62.18;102229.38;5019352;28;19959;-56
2023/06/05 06:59:48;;;;;;;;;;;;;;;16.84;62.82;102226.66;5025189;28;19921;-56
2023/06/05 07:02:15;;;;;;;;;;;;;;;16.92;62.85;102229.44;5026765;28;19924;-57
2023/06/05 07:04:41;;;;;;;;;;;;;;;17.09;62.45;102228.09;5025817;28;20271;-56
2023/06/05 07:07:11;;;;;;;;;;;;;;;17.26;61.34;102231.09;5022624;28;19983;-55
2023/06/05 07:09:36;;;;;;;;;;;;;;;17.11;61.23;102224.72;5018833;28;20419;-56
2023/06/05 07:12:04;;;;;;;;;;;;;;;17.14;61.79;102231.69;5013835;28;20001;-56
2023/06/05 07:14:30;;;;;;;;;;;;;;;17.43;60.53;102233.22;5016068;28;19952;-56
2023/06/05 07:16:58;;;;;;;;;;;;;;;17.57;60.36;102230.91;5014038;28;20344;-55
2023/06/05 07:19:23;;;;;;;;;;;;;;;17.53;59.75;102241.19;5017167;28;20300;-56
2023/06/05 07:21:49;;;;;;;;;;;;;;;17.51;58.77;102238.56;5015267;28;19917;-56
2023/06/05 07:24:14;;;;;;;;;;;;;;;17.66;58.13;102246.72;5015563;28;19918;-56
2023/06/05 07:26:39;;;;;;;;;;;;;;;17.53;58.79;102243.81;5023271;28;19967;-55
2023/06/05 07:29:05;;;;;;;;;;;;;;;17.54;58.60;102237.78;5014470;28;20451;-55
2023/06/05 07:31:30;;;;;;;;;;;;;;;17.57;58.81;102243.91;5019631;28;19917;-56
2023/06/05 07:33:55;;;;;;;;;;;;;;;17.46;58.75;102242.78;5021811;28;20035;-56
2023/06/05 07:36:22;;;;;;;;;;;;;;;17.66;58.13;102238.91;5015037;28;20762;-56
2023/06/05 07:38:47;;;;;;;;;;;;;;;17.65;58.39;102242.38;5018662;28;20377;-56
2023/06/05 07:41:12;;;;;;;;;;;;;;;17.68;58.79;102236.34;5015701;28;19925;-56
2023/06/05 07:43:41;;;;;;;;;;;;;;;17.77;58.63;102241.75;5019083;28;20403;-56
2023/06/05 07:46:08;;;;;;;;;;;;;;;17.91;58.44;102239.44;5016521;28;19991;-56
2023/06/05 07:48:34;;;;;;;;;;;;;;;18.01;58.29;102241.34;5017398;28;20024;-56
2023/06/05 07:50:59;;;;;;;;;;;;;;;18.20;56.91;102245.19;5016624;28;20345;-56
2023/06/05 07:53:25;;;;;;;;;;;;;;;18.16;57.58;102231.25;5018780;28;19968;-56
2023/06/05 07:55:51;;;;;;;;;;;;;;;18.16;57.13;102238.19;5018535;28;19917;-55
2023/06/05 07:58:17;;;;;;;;;;;;;;;18.17;57.31;102243.41;5017260;28;19956;-57
2023/06/05 08:00:43;;;;;;;;;;;;;;;18.34;57.21;102238.53;5021786;28;19955;-56
2023/06/05 08:03:08;;;;;;;;;;;;;;;18.51;56.54;102233.63;5020340;28;19921;-57
2023/06/05 08:05:35;;;;;;;;;;;;;;;18.65;56.52;102231.22;5020952;28;19918;-57
2023/06/05 08:08:02;;;;;;;;;;;;;;;18.81;55.79;102238.50;5015938;28;19957;-56
2023/06/05 08:10:27;;;;;;;;;;;;;;;18.74;54.98;102236.63;5021374;28;19925;-57
2023/06/05 08:12:52;;;;;;;;;;;;;;;18.66;55.84;102228.66;5015053;28;19924;-56
2023/06/05 08:15:18;;;;;;;;;;;;;;;18.59;55.88;102228.53;5025206;28;19960;-56
2023/06/05 08:17:43;;;;;;;;;;;;;;;18.52;55.76;102227.56;5026594;28;19922;-56
2023/06/05 08:20:10;;;;;;;;;;;;;;;18.64;56.14;102235.56;5021065;28;20443;-57
2023/06/05 08:22:36;;;;;;;;;;;;;;;18.65;55.87;102221.69;5016822;28;19924;-56
2023/06/05 08:25:04;;;;;;;;;;;;;;;18.57;56.18;102222.44;5018792;28;19918;-57
2023/06/05 08:27:29;;;;;;;;;;;;;;;18.74;55.43;102216.63;5017474;28;20288;-57
2023/06/05 08:29:54;;;;;;;;;;;;;;;18.79;54.91;102216.72;5014660;28;20427;-57
2023/06/05 08:32:21;;;;;;;;;;;;;;;18.71;55.47;102216.59;5013456;28;19921;-61
2023/06/05 08:34:46;;;;;;;;;;;;;;;18.87;55.05;102211.63;5014042;28;19913;-55
2023/06/05 08:37:11;;;;;;;;;;;;;;;18.83;55.36;102209.84;5021714;28;19917;-56
2023/06/05 08:39:36;;;;;;;;;;;;;;;18.94;54.71;102206.53;5026102;28;19917;-56
2023/06/05 08:42:03;;;;;;;;;;;;;;;18.83;55.31;102204.63;5026620;28;19976;-56
2023/06/05 08:44:28;;;;;;;;;;;;;;;19.02;55.59;102204.91;5026747;28;19928;-57
2023/06/05 08:46:58;;;;;;;;;;;;;;;19.25;53.92;102209.59;5022377;28;19917;-56
2023/06/05 08:49:25;;;;;;;;;;;;;;;19.33;54.17;102204.47;5021661;28;19936;-57
2023/06/05 08:51:52;;;;;;;;;;;;;;;19.38;54.11;102197.59;5022992;28;20004;-56
2023/06/05 08:54:18;;;;;;;;;;;;;;;19.51;54.18;102202.09;5025803;28;19944;-56
2023/06/05 08:56:45;;;;;;;;;;;;;;;19.73;53.65;102204.16;5020865;28;19992;-56
2023/06/05 08:59:14;;;;;;;;;;;;;;;19.83;53.46;102211.22;5020386;28;20368;-56
2023/06/05 09:01:40;;;;;;;;;;;;;;;19.95;53.63;102205.25;5011996;28;20227;-55
2023/06/05 09:04:05;;;;;;;;;;;;;;;20.02;52.57;102206.19;5016807;28;20416;-57
2023/06/05 09:06:32;;;;;;;;;;;;;;;20.07;52.20;102209.72;5019154;28;20284;-57
2023/06/05 09:08:59;;;;;;;;;;;;;;;19.76;52.55;102204.16;5021924;28;19932;-56
2023/06/05 09:11:28;;;;;;;;;;;;;;;19.47;53.81;102195.94;5016625;28;20376;-57
2023/06/05 09:13:57;;;;;;;;;;;;;;;19.31;54.36;102198.38;5019110;28;19990;-58
2023/06/05 09:16:31;;;;;;;;;;;;;;;19.28;54.84;102194.84;5023231;28;19921;-57
2023/06/05 09:18:58;;;;;;;;;;;;;;;19.27;54.55;102187.88;5013482;28;20333;-57
2023/06/05 09:21:28;;;;;;;;;;;;;;;19.27;54.58;102195.69;5016171;28;20016;-57
2023/06/05 09:24:09;;;;;;;;;;;;;;;19.36;54.05;102194.09;5017907;28;19958;-57
2023/06/05 09:26:53;;;;;;;;;;;;;;;19.24;54.59;102200.91;5019857;28;20004;-56
2023/06/05 09:29:21;;;;;;;;;;;;;;;19.16;54.62;102193.81;5014377;28;19925;-57
2023/06/05 09:31:47;;;;;;;;;;;;;;;19.09;55.21;102192.84;5013577;28;19917;-57
2023/06/05 09:34:20;;;;;;;;;;;;;;;19.10;55.17;102186.78;5011760;28;20603;-57
2023/06/05 09:36:45;;;;;;;;;;;;;;;19.25;55.42;102179.16;5012631;28;19921;-57
2023/06/05 09:39:15;;;;;;;;;;;;;;;19.42;55.42;102178.53;5013426;28;20323;-57
2023/06/05 09:41:44;;;;;;;;;;;;;;;19.66;54.57;102184.06;5018321;28;19921;-56
2023/06/05 09:44:09;;;;;;;;;;;;;;;19.66;54.99;102186.69;5021598;28;19925;-57
2023/06/05 09:46:39;;;;;;;;;;;;;;;19.76;53.54;102188.50;5018018;28;20288;-57
2023/06/05 09:49:04;;;;;;;;;;;;;;;19.75;53.87;102186.75;5017788;28;19960;-57
2023/06/05 09:51:30;;;;;;;;;;;;;;;19.86;53.91;102193.84;5015523;28;20003;-56
2023/06/05 09:53:57;;;;;;;;;;;;;;;19.96;53.91;102186.13;5017198;28;19926;-57
2023/06/05 09:56:23;;;;;;;;;;;;;;;20.07;53.52;102184.47;5013444;28;19914;-57
2023/06/05 09:58:49;;;;;;;;;;;;;;;20.04;52.78;102188.81;5017471;28;19971;-56
2023/06/05 10:01:19;;;;;;;;;;;;;;;19.97;53.40;102187.00;5017746;28;19962;-58
2023/06/05 10:03:47;;;;;;;;;;;;;;;19.95;53.61;102183.47;5012045;28;20241;-56
2023/06/05 10:06:13;;;;;;;;;;;;;;;20.11;53.32;102180.19;5018041;28;20370;-57
2023/06/05 10:08:39;;;;;;;;;;;;;;;20.17;53.75;102175.00;5018940;28;19930;-57
2023/06/05 10:11:06;;;;;;;;;;;;;;;20.32;53.43;102164.72;5019947;28;19921;-57
2023/06/05 10:13:31;;;;;;;;;;;;;;;20.51;52.82;102164.91;5016131;28;20280;-57
2023/06/05 10:15:57;;;;;;;;;;;;;;;20.64;52.29;102161.50;5015020;28;19925;-56
2023/06/05 10:18:22;;;;;;;;;;;;;;;20.72;52.42;102154.59;5016953;28;20050;-57
2023/06/05 10:20:47;;;;;;;;;;;;;;;20.81;51.94;102158.97;5016628;28;19937;-57
2023/06/05 10:23:17;;;;;;;;;;;;;;;20.87;51.98;102157.31;5022247;28;19921;-57
2023/06/05 10:25:42;;;;;;;;;;;;;;;21.04;51.67;102159.13;5019378;28;19914;-58
2023/06/05 10:28:14;;;;;;;;;;;;;;;21.14;50.92;102148.72;5018197;28;20083;-58
2023/06/05 10:30:42;;;;;;;;;;;;;;;21.22;50.56;102156.59;5013797;28;19928;-56
2023/06/05 10:33:19;;;;;;;;;;;;;;;21.32;50.63;102154.94;5016528;28;19917;-56
2023/06/05 10:35:48;;;;;;;;;;;;;;;21.34;50.16;102158.44;5018334;28;20012;-57
2023/06/05 10:38:16;;;;;;;;;;;;;;;21.28;50.70;102150.53;5019549;28;19913;-57
2023/06/05 10:40:42;;;;;;;;;;;;;;;21.39;51.16;102154.97;5016770;28;19913;-58
2023/06/05 10:43:25;;;;;;;;;;;;;;;21.50;51.04;102149.78;5019581;28;20237;-57
2023/06/05 10:45:51;;;;;;;;;;;;;;;21.55;50.31;102157.66;5023229;28;19964;-57
2023/06/05 10:48:17;;;;;;;;;;;;;;;21.47;50.22;102154.13;5016323;28;19929;-56
2023/06/05 10:50:42;;;;;;;;;;;;;;;21.50;51.17;102151.53;5010385;28;19929;-57
2023/06/05 10:53:28;;;;;;;;;;;;;;;21.63;49.67;102161.16;5017003;28;19925;-58
2023/06/05 10:55:53;;;;;;;;;;;;;;;21.56;49.79;102146.31;5014729;28;20299;-57
2023/06/05 10:58:22;;;;;;;;;;;;;;;21.60;50.29;102146.34;5015148;28;19921;-58
2023/06/05 11:01:06;;;;;;;;;;;;;;;21.63;49.63;102150.69;5013988;28;19956;-57
2023/06/05 11:03:50;;;;;;;;;;;;;;;21.73;49.36;102143.75;5013848;28;19932;-57
2023/06/05 11:06:16;;;;;;;;;;;;;;;21.88;49.64;102131.53;5011638;28;20051;-57
2023/06/05 11:08:41;;;;;;;;;;;;;;;21.99;49.15;102139.41;5009906;28;20020;-57
2023/06/05 11:11:09;;;;;;;;;;;;;;;21.86;49.07;102130.66;5011001;28;20011;-57
2023/06/05 11:13:54;;;;;;;;;;;;;;;21.74;49.81;102129.78;5016513;28;19921;-57
2023/06/05 11:16:30;;;;;;;;;;;;;;;21.93;48.87;102129.78;5022476;28;19987;-57
2023/06/05 11:19:15;;;;;;;;;;;;;;;21.90;47.98;102126.28;5011808;28;19913;-56
2023/06/05 11:21:59;;;;;;;;;;;;;;;22.06;48.73;102124.56;5015892;28;19963;-57
2023/06/05 11:24:25;;;;;;;;;;;;;;;21.98;48.55;102113.22;5018542;28;20469;-57
2023/06/05 11:26:50;;;;;;;;;;;;;;;22.13;48.91;102113.25;5013640;28;20004;-57
2023/06/05 11:29:15;;;;;;;;;;;;;;;22.32;48.78;102114.97;5015116;28;19929;-57
2023/06/05 11:31:42;;;;;;;;;;;;;;;22.43;48.42;102115.84;5017325;28;19921;-57
2023/06/05 11:34:12;;;;;;;;;;;;;;;22.47;47.78;102117.59;5014736;28;19992;-57
2023/06/05 11:36:38;;;;;;;;;;;;;;;22.40;47.17;102115.88;5014477;28;20394;-56
2023/06/05 11:39:03;;;;;;;;;;;;;;;22.40;46.23;102110.63;5012276;28;19918;-57
2023/06/05 11:41:29;;;;;;;;;;;;;;;22.42;47.68;102111.50;5012442;28;19921;-57
2023/06/05 11:43:56;;;;;;;;;;;;;;;22.49;47.36;102107.09;5010530;28;19917;-57
2023/06/05 11:46:35;;;;;;;;;;;;;;;22.65;47.39;102103.59;5019128;28;20344;-57
2023/06/05 11:49:00;;;;;;;;;;;;;;;22.84;46.58;102104.41;5014107;28;19921;-57
2023/06/05 11:51:31;;;;;;;;;;;;;;;22.88;45.87;102090.47;5014881;28;19925;-56
2023/06/05 11:53:59;;;;;;;;;;;;;;;23.06;45.63;102097.38;5014653;28;19939;-57
2023/06/05 11:56:27;;;;;;;;;;;;;;;22.97;45.13;102095.66;5013809;28;19925;-57
2023/06/05 11:58:52;;;;;;;;;;;;;;;23.05;44.64;102094.75;5019049;28;20059;-57
2023/06/05 12:01:21;;;;;;;;;;;;;;;23.14;44.92;102105.22;5012270;28;19960;-55
2023/06/05 12:03:47;;;;;;;;;;;;;;;23.12;44.69;102088.63;5012757;28;19929;-58
2023/06/05 12:06:13;;;;;;;;;;;;;;;23.13;44.56;102090.34;5012049;28;19943;-56
2023/06/05 12:08:39;;;;;;;;;;;;;;;23.20;44.74;102094.69;5010171;28;20394;-57
2023/06/05 12:11:19;;;;;;;;;;;;;;;23.20;44.53;102098.19;5010629;28;19913;-58
2023/06/05 12:14:02;;;;;;;;;;;;;;;23.21;43.65;102088.56;5010022;28;19949;-58
2023/06/05 12:16:33;;;;;;;;;;;;;;;23.41;43.32;102083.19;5013091;28;19921;-57
2023/06/05 12:18:59;;;;;;;;;;;;;;;23.64;44.32;102083.97;5012259;28;19920;-56
2023/06/05 12:21:25;;;;;;;;;;;;;;;23.85;43.50;102075.06;5013084;28;19917;-57
2023/06/05 12:23:51;;;;;;;;;;;;;;;23.87;42.39;102075.06;5014921;28;19997;-58
2023/06/05 12:26:17;;;;;;;;;;;;;;;23.74;43.71;102074.28;5022125;28;19949;-57
2023/06/05 12:28:43;;;;;;;;;;;;;;;23.62;44.01;102072.59;5012783;28;20390;-56
2023/06/05 12:31:08;;;;;;;;;;;;;;;23.67;43.63;102076.09;5014412;28;19926;-56
2023/06/05 12:33:45;;;;;;;;;;;;;;;23.75;43.73;102074.25;5017113;28;19917;-56